»·PEaware :: N973SE KSNA-KSNA

N973SE :: KSNA-KSNA

FLIGHT INFORMATION

Flight Status: Arrived
Operator: Privately registered:
United States
More flights under this callsign
Pilot: Stig E. (4778)
Aircraft: CESSNA 310
(C310)
More flights by this aircraft type
Origin: KSNA John Wayne-Orange Co
United States
Destination: KSNA John Wayne-Orange Co
United States
More flights between these airports :: More routes between these airports
Route: KNKX L08 KPSP KRIV SAGER
File this flight plan on PilotEdge
Remarks:
Altitude:
(Current/Filed)
145ft
Speed:
(Current/Filed)
170kts
Departed: 27-Dec-18 12:13 AM
Arrived: 27-Dec-18 01:28 AM
Distance/Time
Traveled:
0nm/1:14
Distance/Time
To Go:
Arrived

Flight Plot

Page will automatically refresh every two minutes.

Flight plan parsing failed; only flown route is shown


Map Options




Map Legend


Flown Route
Filed Route
Departure Airport
Arrival Airport
Navaid (VOR, NDB)
Fix

Horizontal Profiles

Position Reports

Time Latitude Longitude Heading Altitude Ground
Speed
27-Dec-18 00:01 33.679648 -117.862038 117 59ft 0kts
27-Dec-18 00:02 33.679648 -117.862038 117 59ft 0kts
27-Dec-18 00:03 33.679648 -117.862038 117 59ft 0kts
27-Dec-18 00:04 33.679648 -117.862038 117 59ft 0kts
27-Dec-18 00:05 33.679648 -117.862038 117 59ft 0kts
27-Dec-18 00:06 33.679648 -117.862038 117 59ft 0kts
27-Dec-18 00:07 33.679648 -117.862038 117 59ft 0kts
27-Dec-18 00:08 33.679648 -117.862038 117 59ft 0kts
27-Dec-18 00:09 33.679648 -117.862038 117 59ft 0kts
27-Dec-18 00:10 33.679876 -117.863452 295 59ft 12kts
27-Dec-18 00:11 33.679909 -117.863532 296 59ft 0kts
27-Dec-18 00:12 33.679380 -117.864626 208 60ft 44kts
27-Dec-18 00:13 33.652453 -117.878195 158 1219ft 127kts
27-Dec-18 00:14 33.635789 -117.839983 121 2511ft 149kts
27-Dec-18 00:15 33.604979 -117.803720 140 3526ft 162kts
27-Dec-18 00:16 33.568558 -117.770202 141 4530ft 168kts
27-Dec-18 00:17 33.530777 -117.735954 141 5531ft 173kts
27-Dec-18 00:18 33.491960 -117.700823 140 6533ft 177kts
27-Dec-18 00:19 33.452252 -117.664930 140 7535ft 181kts
27-Dec-18 00:20 33.411520 -117.628156 140 8541ft 185kts
27-Dec-18 00:21 33.369884 -117.590611 140 9547ft 190kts
27-Dec-18 00:22 33.327320 -117.552276 140 10555ft 195kts
27-Dec-18 00:23 33.283585 -117.512757 140 11573ft 199kts
27-Dec-18 00:24 33.239114 -117.472171 140 12593ft 204kts
27-Dec-18 00:25 33.193429 -117.431065 140 13619ft 208kts
27-Dec-18 00:26 33.146768 -117.389220 140 14499ft 220kts
27-Dec-18 00:27 33.094709 -117.342628 141 14495ft 241kts
27-Dec-18 00:28 33.040486 -117.294202 140 14494ft 245kts
27-Dec-18 00:29 32.985890 -117.245499 140 14495ft 246kts
27-Dec-18 00:30 32.930799 -117.196425 140 14496ft 247kts
27-Dec-18 00:31 32.880301 -117.143812 95 14481ft 229kts
27-Dec-18 00:32 32.899769 -117.081450 52 14490ft 201kts
27-Dec-18 00:33 32.926702 -117.023102 51 14489ft 202kts
27-Dec-18 00:34 32.954526 -116.964644 52 14488ft 203kts
27-Dec-18 00:35 32.982568 -116.905922 53 14488ft 204kts
27-Dec-18 00:36 33.010657 -116.847037 53 14488ft 205kts
27-Dec-18 00:37 33.038748 -116.788066 52 14487ft 204kts
27-Dec-18 00:38 33.066654 -116.729401 52 14487ft 203kts
27-Dec-18 00:39 33.094370 -116.671041 52 14487ft 202kts
27-Dec-18 00:40 33.121365 -116.614122 51 14495ft 202kts
27-Dec-18 00:42 33.149051 -116.555650 51 14491ft 202kts
27-Dec-18 00:43 33.176673 -116.497213 51 14484ft 202kts
27-Dec-18 00:44 33.204281 -116.438710 51 14472ft 202kts
27-Dec-18 00:45 33.231929 -116.380026 51 14456ft 202kts
27-Dec-18 00:46 33.263532 -116.328026 2 14442ft 181kts
27-Dec-18 00:47 33.312179 -116.339895 345 14436ft 179kts
27-Dec-18 00:48 33.360412 -116.354819 344 14436ft 179kts
27-Dec-18 00:49 33.408494 -116.370261 344 14435ft 179kts
27-Dec-18 00:50 33.456574 -116.385827 344 14435ft 179kts
27-Dec-18 00:51 33.504563 -116.401403 344 14435ft 179kts
27-Dec-18 00:52 33.552494 -116.416982 344 14435ft 179kts
27-Dec-18 00:53 33.600582 -116.432631 344 14436ft 179kts
27-Dec-18 00:54 33.648460 -116.448230 344 14441ft 179kts
27-Dec-18 00:55 33.696422 -116.463874 344 14445ft 179kts
27-Dec-18 00:56 33.744558 -116.479592 344 14449ft 179kts
27-Dec-18 00:57 33.789448 -116.494271 344 14443ft 153kts
27-Dec-18 00:58 33.826235 -116.511802 299 14453ft 150kts
27-Dec-18 00:59 33.833186 -116.565553 285 14023ft 171kts
27-Dec-18 01:00 33.837962 -116.623722 284 13511ft 177kts
27-Dec-18 01:01 33.842339 -116.683139 283 12999ft 180kts
27-Dec-18 01:02 33.846529 -116.741928 283 12477ft 174kts
27-Dec-18 01:02 33.849933 -116.789881 283 12047ft 172kts
27-Dec-18 01:03 33.853978 -116.847226 282 11533ft 171kts
27-Dec-18 01:05 33.858622 -116.913593 282 10933ft 170kts
27-Dec-18 01:05 33.861895 -116.960690 281 10505ft 169kts
27-Dec-18 01:06 33.865788 -117.017045 281 9991ft 169kts
27-Dec-18 01:08 33.870285 -117.082632 281 9392ft 168kts
27-Dec-18 01:08 33.873480 -117.129530 280 8963ft 169kts
27-Dec-18 01:10 33.877923 -117.195211 280 8365ft 169kts
27-Dec-18 01:10 33.881077 -117.242166 280 7938ft 169kts
27-Dec-18 01:11 33.885454 -117.298544 280 7426ft 169kts
27-Dec-18 01:12 33.890296 -117.355211 281 6911ft 171kts
27-Dec-18 01:13 33.895165 -117.412462 281 6404ft 172kts
27-Dec-18 01:14 33.900059 -117.470026 280 5895ft 172kts
27-Dec-18 01:15 33.904909 -117.527366 279 5388ft 172kts
27-Dec-18 01:16 33.909710 -117.584443 279 4881ft 171kts
27-Dec-18 01:17 33.914567 -117.641353 278 4376ft 172kts
27-Dec-18 01:18 33.919668 -117.697609 278 3857ft 165kts
27-Dec-18 01:19 33.891712 -117.733119 204 3448ft 157kts
27-Dec-18 01:20 33.855164 -117.755113 207 3541ft 130kts
27-Dec-18 01:21 33.823728 -117.774968 207 3221ft 126kts
27-Dec-18 01:22 33.792584 -117.794743 207 2565ft 126kts
27-Dec-18 01:23 33.761811 -117.814278 207 1869ft 124kts
27-Dec-18 01:24 33.732004 -117.833172 207 1202ft 118kts
27-Dec-18 01:25 33.704030 -117.850896 207 589ft 111kts
27-Dec-18 01:26 33.677713 -117.867562 206 60ft 79kts
27-Dec-18 01:27 33.674507 -117.872009 114 59ft 0kts
27-Dec-18 01:28 33.674507 -117.872009 114 59ft 0kts

Navigation Log

Ident Type
Flight plan parsing failed, navigation log unavailable